Time;durP1;ratioP1;P1;durP2;ratioP2;P2;SDS_P1;SDS_P2;PMS_P1;PMS_P2;Temp;Humidity;BMP_temperature;BMP_pressure;BME280_temperature;BME280_humidity;BME280_pressure;Samples;Min_cycle;Max_cycle;Signal;HPM_P1;HPM_P2
2021/08/09 00:00:21;;;;;;;4.35;2.00;;;15.80;99.90;;;;;;5091400;28;20023;-40
2021/08/09 00:02:46;;;;;;;3.95;2.00;;;15.80;99.90;;;;;;5090958;28;20028;-41
2021/08/09 00:05:12;;;;;;;5.68;2.22;;;15.70;99.90;;;;;;5091695;28;20030;-41
2021/08/09 00:07:38;;;;;;;3.25;2.25;;;15.70;99.90;;;;;;5090611;28;20075;-40
2021/08/09 00:10:04;;;;;;;6.30;2.30;;;15.70;99.90;;;;;;5091177;28;20040;-43
2021/08/09 00:12:29;;;;;;;6.18;2.35;;;15.70;99.90;;;;;;5090421;28;20102;-39
2021/08/09 00:14:55;;;;;;;8.68;2.97;;;15.70;99.90;;;;;;5091295;28;20563;-39
2021/08/09 00:17:21;;;;;;;5.28;2.00;;;15.70;99.90;;;;;;5090900;28;20041;-43
2021/08/09 00:19:46;;;;;;;7.22;2.83;;;15.70;99.90;;;;;;5091092;28;20024;-43
2021/08/09 00:22:12;;;;;;;6.07;2.15;;;15.70;99.90;;;;;;5090839;28;20051;-40
2021/08/09 00:24:38;;;;;;;9.23;2.95;;;15.60;99.90;;;;;;5090943;28;20355;-43
2021/08/09 00:27:03;;;;;;;3.83;2.10;;;15.60;99.90;;;;;;5091415;28;20032;-36
2021/08/09 00:29:29;;;;;;;6.15;2.00;;;15.60;99.90;;;;;;5089771;28;20012;-40
2021/08/09 00:31:55;;;;;;;6.53;1.92;;;15.60;99.90;;;;;;5091320;28;20043;-42
2021/08/09 00:34:20;;;;;;;4.28;1.92;;;15.60;99.90;;;;;;5090769;28;20024;-43
2021/08/09 00:36:46;;;;;;;3.05;2.00;;;15.60;99.90;;;;;;5089637;28;20027;-43
2021/08/09 00:39:12;;;;;;;4.43;2.03;;;15.50;99.90;;;;;;5090440;28;20448;-43
2021/08/09 00:41:38;;;;;;;3.97;2.05;;;15.50;99.90;;;;;;5090608;28;20315;-42
2021/08/09 00:44:03;;;;;;;5.95;2.20;;;15.50;99.90;;;;;;5090530;28;20284;-43
2021/08/09 00:46:29;;;;;;;5.35;2.00;;;15.50;99.90;;;;;;5089986;28;20098;-43
2021/08/09 00:48:55;;;;;;;6.22;2.60;;;15.50;99.90;;;;;;5090657;28;20056;-44
2021/08/09 00:51:21;;;;;;;7.18;1.98;;;15.50;99.90;;;;;;5078909;28;20028;-41
2021/08/09 00:53:47;;;;;;;4.60;2.13;;;15.40;99.90;;;;;;5090424;28;20016;-43
2021/08/09 00:56:16;;;;;;;4.32;2.20;;;15.40;99.90;;;;;;5090305;28;20421;-42
2021/08/09 00:58:41;;;;;;;3.92;2.20;;;15.40;99.90;;;;;;5089561;28;20396;-45
2021/08/09 01:01:07;;;;;;;4.22;2.10;;;15.40;99.90;;;;;;5090018;28;20549;-41
2021/08/09 01:03:32;;;;;;;4.88;2.08;;;15.40;99.90;;;;;;5089995;28;20536;-43
2021/08/09 01:05:58;;;;;;;8.05;2.35;;;15.40;99.90;;;;;;5088750;28;20031;-43
2021/08/09 01:08:36;;;;;;;4.18;2.00;;;15.30;99.90;;;;;;5089726;28;20101;-44
2021/08/09 01:11:19;;;;;;;7.60;2.15;;;15.30;99.90;;;;;;5089657;28;20483;-40
2021/08/09 01:14:03;;;;;;;7.65;1.83;;;15.30;99.90;;;;;;5069237;28;20023;-41
2021/08/09 01:16:33;;;;;;;7.55;2.20;;;15.30;99.90;;;;;;5087504;28;20040;-44
2021/08/09 01:19:01;;;;;;;4.57;2.22;;;15.30;99.90;;;;;;5089411;28;20020;-42
2021/08/09 01:21:31;;;;;;;5.53;2.20;;;15.30;99.90;;;;;;5089027;28;20165;-40
2021/08/09 01:24:10;;;;;;;5.07;2.00;;;15.30;99.90;;;;;;5070213;28;20025;-40
2021/08/09 01:26:46;;;;;;;6.00;2.80;;;15.20;99.90;;;;;;5084210;28;20071;-43
2021/08/09 01:29:17;;;;;;;5.63;2.03;;;15.20;99.90;;;;;;5069893;28;20474;-42
2021/08/09 01:31:46;;;;;;;5.75;2.25;;;15.20;99.90;;;;;;5084339;28;20032;-41
2021/08/09 01:34:13;;;;;;;3.83;1.98;;;15.20;99.90;;;;;;5089872;28;20019;-42
2021/08/09 01:36:42;;;;;;;6.35;2.05;;;15.20;99.90;;;;;;5089289;28;20031;-42
2021/08/09 01:39:09;;;;;;;6.50;2.35;;;15.20;99.90;;;;;;5090081;28;20016;-42
2021/08/09 01:41:36;;;;;;;3.30;2.00;;;15.20;99.90;;;;;;5088455;28;20020;-40
2021/08/09 01:44:03;;;;;;;5.97;2.42;;;15.20;99.90;;;;;;5089385;28;20099;-43
2021/08/09 01:46:30;;;;;;;3.13;2.08;;;15.20;99.90;;;;;;5088279;28;20020;-37
2021/08/09 01:48:57;;;;;;;6.80;2.13;;;15.10;99.90;;;;;;5089433;28;20460;-39
2021/08/09 01:51:23;;;;;;;5.38;2.38;;;15.10;99.90;;;;;;5088239;28;20494;-43
2021/08/09 01:53:49;;;;;;;4.13;2.00;;;15.10;99.90;;;;;;5089045;28;20356;-40
2021/08/09 01:56:15;;;;;;;5.88;2.25;;;15.10;99.90;;;;;;5089656;28;20103;-41
2021/08/09 01:58:41;;;;;;;5.53;2.03;;;15.00;99.90;;;;;;5088458;28;20468;-43
2021/08/09 02:01:07;;;;;;;4.03;1.85;;;15.00;99.90;;;;;;5088621;28;20024;-41
2021/08/09 02:03:33;;;;;;;6.15;2.17;;;15.00;99.90;;;;;;5088702;28;20035;-39
2021/08/09 02:05:58;;;;;;;4.63;2.20;;;15.00;99.90;;;;;;5089820;28;20020;-42
2021/08/09 02:08:24;;;;;;;4.55;2.20;;;15.00;99.90;;;;;;5087746;28;20024;-42
2021/08/09 02:11:13;;;;;;;7.03;2.30;;;14.90;99.90;;;;;;5089082;28;20067;-40
2021/08/09 02:13:55;;;;;;;5.97;1.98;;;15.00;99.90;;;;;;5088300;28;20777;-40
2021/08/09 02:16:34;;;;;;;6.35;2.35;;;14.90;99.90;;;;;;5087604;28;20024;-38
2021/08/09 02:19:05;;;;;;;5.32;2.17;;;14.90;99.90;;;;;;5088725;28;20012;-42
2021/08/09 02:21:41;;;;;;;4.20;2.00;;;14.90;99.90;;;;;;5089038;28;20430;-43
2021/08/09 02:24:11;;;;;;;3.92;1.75;;;14.90;99.90;;;;;;5088171;28;20115;-42
2021/08/09 02:26:50;;;;;;;5.47;1.95;;;14.90;99.90;;;;;;5088165;28;20016;-41
2021/08/09 02:29:27;;;;;;;10.13;3.38;;;15.00;99.90;;;;;;5088101;28;20469;-40
2021/08/09 02:31:55;;;;;;;4.38;1.85;;;15.00;99.90;;;;;;5089993;28;20020;-42
2021/08/09 02:34:23;;;;;;;6.68;2.05;;;15.00;99.90;;;;;;5088070;28;20023;-42
2021/08/09 02:36:49;;;;;;;7.32;1.98;;;15.10;99.90;;;;;;5088950;28;20024;-43
2021/08/09 02:39:17;;;;;;;5.57;2.47;;;15.10;99.90;;;;;;5088803;28;20055;-41
2021/08/09 02:41:43;;;;;;;6.13;2.17;;;15.10;99.90;;;;;;5087888;28;20527;-42
2021/08/09 02:44:12;;;;;;;7.05;2.17;;;15.10;99.90;;;;;;5088117;28;20364;-43
2021/08/09 02:46:40;;;;;;;4.82;1.92;;;15.10;99.90;;;;;;5088394;28;20022;-38
2021/08/09 02:49:07;;;;;;;9.25;2.33;;;15.10;99.90;;;;;;5088404;28;20020;-41
2021/08/09 02:51:39;;;;;;;7.03;2.72;;;15.10;99.90;;;;;;5087847;28;20035;-43
2021/08/09 02:54:05;;;;;;;5.07;1.90;;;15.20;99.90;;;;;;5089033;28;20016;-41
2021/08/09 02:56:33;;;;;;;6.63;2.05;;;15.10;99.90;;;;;;5088322;28;20027;-41
2021/08/09 02:58:58;;;;;;;3.03;1.98;;;15.10;99.90;;;;;;5088003;28;20012;-41
2021/08/09 03:01:27;;;;;;;4.72;1.95;;;15.10;99.90;;;;;;5087835;28;20364;-44
2021/08/09 03:03:57;;;;;;;10.10;2.33;;;15.10;99.90;;;;;;5087368;28;20074;-38
2021/08/09 03:06:24;;;;;;;3.72;1.88;;;15.10;99.90;;;;;;5087860;28;20153;-40
2021/08/09 03:08:50;;;;;;;6.18;2.10;;;15.10;99.90;;;;;;5088667;28;20016;-42
2021/08/09 03:11:15;;;;;;;6.40;3.25;;;15.10;99.90;;;;;;5087906;28;20059;-42
2021/08/09 03:13:48;;;;;;;7.47;2.58;;;15.10;99.90;;;;;;5088278;28;20352;-37
2021/08/09 03:16:15;;;;;;;5.40;2.17;;;15.00;99.90;;;;;;5088094;28;20532;-41
2021/08/09 03:18:40;;;;;;;6.47;2.13;;;15.10;99.90;;;;;;5087339;28;20024;-40
2021/08/09 03:21:06;;;;;;;4.63;2.10;;;15.00;99.90;;;;;;5089035;28;20150;-42
2021/08/09 03:23:33;;;;;;;6.50;2.30;;;15.00;99.90;;;;;;5087946;28;20463;-40
2021/08/09 03:25:59;;;;;;;5.35;1.92;;;15.00;99.90;;;;;;5087708;28;20020;-42
2021/08/09 03:28:24;;;;;;;5.78;1.90;;;15.00;99.90;;;;;;5088298;28;20039;-42
2021/08/09 03:30:50;;;;;;;4.80;1.83;;;15.00;99.90;;;;;;5092474;28;20467;-43
2021/08/09 03:33:16;;;;;;;6.15;1.90;;;15.10;99.90;;;;;;5092364;28;20383;-41
2021/08/09 03:35:42;;;;;;;3.95;1.75;;;15.00;99.90;;;;;;5091441;28;20036;-39
2021/08/09 03:38:07;;;;;;;7.22;2.10;;;15.00;99.90;;;;;;5092854;28;20031;-42
2021/08/09 03:40:33;;;;;;;8.57;2.33;;;15.10;99.90;;;;;;5090446;28;20113;-42
2021/08/09 03:42:59;;;;;;;5.53;2.05;;;15.10;99.90;;;;;;5091950;28;20032;-43
2021/08/09 03:45:24;;;;;;;6.65;2.00;;;15.10;99.90;;;;;;5091599;28;20016;-41
2021/08/09 03:47:50;;;;;;;6.32;2.17;;;15.10;99.90;;;;;;5091702;28;20123;-37
2021/08/09 03:50:15;;;;;;;5.65;2.47;;;15.10;99.90;;;;;;5092210;28;20028;-41
2021/08/09 03:52:51;;;;;;;6.32;2.60;;;15.10;99.90;;;;;;5091696;28;20331;-38
2021/08/09 03:55:17;;;;;;;5.28;1.95;;;15.00;99.90;;;;;;5091017;28;20020;-41
2021/08/09 03:57:43;;;;;;;5.43;1.92;;;15.10;99.90;;;;;;5091461;28;20032;-43
2021/08/09 04:00:09;;;;;;;5.50;1.88;;;15.10;99.90;;;;;;5091814;28;20020;-43
2021/08/09 04:02:37;;;;;;;6.15;2.15;;;15.10;99.90;;;;;;5091142;28;20024;-43
2021/08/09 04:05:03;;;;;;;6.50;2.05;;;15.10;99.90;;;;;;5091010;28;20026;-41
2021/08/09 04:07:29;;;;;;;6.40;1.92;;;15.10;99.90;;;;;;5090564;28;20107;-43
2021/08/09 04:09:55;;;;;;;6.55;2.30;;;15.10;99.90;;;;;;5091832;28;20456;-42
2021/08/09 04:12:23;;;;;;;8.00;2.05;;;15.10;99.90;;;;;;5090999;28;20079;-39
2021/08/09 04:14:49;;;;;;;6.97;1.80;;;15.00;99.90;;;;;;5091326;28;20039;-42
2021/08/09 04:17:15;;;;;;;6.85;2.17;;;15.00;99.90;;;;;;5091574;28;20105;-44
2021/08/09 04:19:41;;;;;;;6.60;2.17;;;15.10;99.90;;;;;;5090964;28;20024;-42
2021/08/09 04:22:07;;;;;;;5.43;1.80;;;15.00;99.90;;;;;;5090685;28;20034;-40
2021/08/09 04:24:32;;;;;;;4.65;2.05;;;15.00;99.90;;;;;;5091005;28;20111;-42
2021/08/09 04:26:58;;;;;;;5.43;2.10;;;15.00;99.90;;;;;;5091163;28;20118;-41
2021/08/09 04:29:24;;;;;;;5.80;2.10;;;15.00;99.90;;;;;;5089825;28;20023;-44
2021/08/09 04:31:49;;;;;;;4.18;1.60;;;15.00;99.90;;;;;;5091677;28;20020;-43
2021/08/09 04:34:15;;;;;;;5.50;1.83;;;15.00;99.90;;;;;;5091484;28;20106;-41
2021/08/09 04:36:40;;;;;;;5.13;1.60;;;14.90;99.90;;;;;;5090386;28;20020;-42
2021/08/09 04:39:15;;;;;;;5.50;1.98;;;14.90;99.90;;;;;;5090640;28;20529;-39
2021/08/09 04:41:41;;;;;;;2.83;1.80;;;14.90;99.90;;;;;;5089711;28;20020;-40
2021/08/09 04:44:07;;;;;;;6.55;1.70;;;15.00;99.90;;;;;;5090808;28;20055;-40
2021/08/09 04:46:33;;;;;;;6.07;1.85;;;14.90;99.90;;;;;;5090391;28;20052;-41
2021/08/09 04:48:58;;;;;;;6.03;1.80;;;15.00;99.90;;;;;;5090912;28;20389;-39
2021/08/09 04:51:24;;;;;;;5.85;2.30;;;15.00;99.90;;;;;;5090183;28;20085;-44
2021/08/09 04:53:50;;;;;;;3.35;1.77;;;15.00;99.90;;;;;;5090219;28;20024;-41
2021/08/09 04:56:15;;;;;;;6.18;2.00;;;15.00;99.90;;;;;;5090554;28;20257;-41
2021/08/09 04:58:41;;;;;;;3.78;1.80;;;15.10;99.90;;;;;;5089736;28;20368;-40
2021/08/09 05:01:08;;;;;;;4.40;1.75;;;15.10;99.90;;;;;;5090980;28;20039;-40
2021/08/09 05:03:40;;;;;;;6.00;1.80;;;15.20;99.90;;;;;;5089587;28;20085;-41
2021/08/09 05:06:10;;;;;;;3.45;1.77;;;15.30;99.90;;;;;;5090612;28;20062;-44
2021/08/09 05:08:35;;;;;;;6.22;2.28;;;15.30;99.90;;;;;;5089202;28;20027;-41
2021/08/09 05:11:01;;;;;;;6.80;1.83;;;15.40;99.90;;;;;;5089607;28;20040;-42
2021/08/09 05:13:29;;;;;;;7.07;2.10;;;15.40;99.90;;;;;;5090062;28;20016;-40
2021/08/09 05:15:54;;;;;;;5.30;1.90;;;15.50;99.90;;;;;;5089825;28;20071;-39
2021/08/09 05:18:20;;;;;;;6.40;2.22;;;15.50;99.90;;;;;;5089108;28;20016;-41
2021/08/09 05:20:47;;;;;;;5.05;1.83;;;15.50;99.90;;;;;;5090464;28;20047;-41
2021/08/09 05:23:14;;;;;;;5.57;1.67;;;15.50;99.90;;;;;;5089948;28;20383;-40
2021/08/09 05:25:41;;;;;;;6.90;2.25;;;15.60;99.90;;;;;;5089014;28;20530;-41
2021/08/09 05:28:06;;;;;;;6.45;2.20;;;15.60;99.90;;;;;;5090391;28;20058;-40
2021/08/09 05:30:32;;;;;;;6.35;2.15;;;15.60;99.90;;;;;;5088969;28;20055;-42
2021/08/09 05:33:00;;;;;;;5.00;2.40;;;15.60;99.90;;;;;;5089256;28;20028;-40
2021/08/09 05:35:26;;;;;;;5.57;1.77;;;15.70;99.90;;;;;;5089320;28;20479;-40
2021/08/09 05:37:52;;;;;;;4.90;1.80;;;15.70;99.90;;;;;;5089555;28;20035;-44
2021/08/09 05:40:18;;;;;;;8.80;2.70;;;15.80;99.90;;;;;;5089117;28;20016;-40
2021/08/09 05:42:48;;;;;;;5.40;2.17;;;15.80;99.90;;;;;;5089594;28;20039;-40
2021/08/09 05:45:16;;;;;;;6.65;2.40;;;15.90;99.90;;;;;;5089471;28;20020;-38
2021/08/09 05:47:42;;;;;;;5.30;2.63;;;15.90;99.90;;;;;;5089301;28;20024;-39
2021/08/09 05:50:09;;;;;;;4.63;1.90;;;16.00;99.90;;;;;;5089312;28;20024;-43
2021/08/09 05:52:34;;;;;;;6.97;2.13;;;16.00;99.90;;;;;;5088214;28;20227;-44
2021/08/09 05:55:02;;;;;;;5.72;2.95;;;16.00;99.90;;;;;;5089151;28;20491;-41
2021/08/09 05:57:28;;;;;;;5.07;2.33;;;16.10;99.90;;;;;;5089302;28;20353;-41
2021/08/09 05:59:54;;;;;;;3.78;1.77;;;16.10;99.90;;;;;;5088840;28;20031;-41
2021/08/09 06:02:19;;;;;;;6.32;2.17;;;16.10;99.90;;;;;;5088818;28;20034;-42
2021/08/09 06:04:45;;;;;;;5.18;1.90;;;16.10;99.90;;;;;;5089103;28;20369;-41
2021/08/09 06:07:15;;;;;;;6.72;2.45;;;16.10;99.90;;;;;;5088656;28;20497;-41
2021/08/09 06:09:42;;;;;;;6.70;2.20;;;16.00;99.90;;;;;;5088344;28;20456;-42
2021/08/09 06:12:08;;;;;;;5.78;2.67;;;16.00;99.90;;;;;;5089622;28;20038;-39
2021/08/09 06:14:34;;;;;;;5.03;2.00;;;16.00;99.90;;;;;;5088008;28;20467;-42
2021/08/09 06:17:00;;;;;;;3.55;2.00;;;16.00;99.90;;;;;;5085246;28;20020;-42
2021/08/09 06:19:25;;;;;;;5.38;2.03;;;16.00;99.90;;;;;;5088679;28;20028;-38
2021/08/09 06:21:51;;;;;;;3.28;2.25;;;16.00;99.90;;;;;;5088601;28;20044;-39
2021/08/09 06:24:16;;;;;;;5.78;1.85;;;15.90;99.90;;;;;;5088979;28;20931;-43
2021/08/09 06:26:42;;;;;;;4.75;1.83;;;15.90;99.90;;;;;;5088331;28;20111;-43
2021/08/09 06:29:07;;;;;;;4.18;2.30;;;15.90;99.90;;;;;;5088497;28;20046;-41
2021/08/09 06:31:33;;;;;;;4.43;2.60;;;15.80;99.90;;;;;;5087942;28;20062;-41
2021/08/09 06:33:59;;;;;;;5.03;2.40;;;15.80;99.90;;;;;;5089248;28;20024;-44
2021/08/09 06:36:24;;;;;;;10.25;4.40;;;15.80;99.90;;;;;;5087696;28;20024;-41
2021/08/09 06:38:50;;;;;;;4.32;2.15;;;15.80;99.90;;;;;;5088901;28;20031;-39
2021/08/09 06:41:20;;;;;;;6.97;2.80;;;15.90;99.90;;;;;;5088871;28;20081;-42
2021/08/09 06:43:45;;;;;;;4.88;2.40;;;15.90;99.90;;;;;;5087819;28;20039;-41
2021/08/09 06:46:13;;;;;;;3.45;2.00;;;16.00;99.90;;;;;;5088983;28;20026;-43
2021/08/09 06:48:38;;;;;;;3.17;2.00;;;16.00;99.90;;;;;;5088168;28;20354;-40
2021/08/09 06:51:04;;;;;;;6.72;3.13;;;16.00;99.90;;;;;;5088015;28;20444;-42
2021/08/09 06:53:29;;;;;;;6.20;2.85;;;16.10;99.90;;;;;;5088581;28;20077;-43
2021/08/09 06:55:58;;;;;;;6.93;2.90;;;16.20;99.90;;;;;;5088013;28;20078;-38
2021/08/09 06:58:23;;;;;;;5.63;2.85;;;16.20;99.90;;;;;;5084353;28;20035;-42
2021/08/09 07:00:49;;;;;;;6.47;2.53;;;16.30;99.90;;;;;;5088519;28;20024;-40
2021/08/09 07:03:17;;;;;;;5.07;2.67;;;16.30;99.90;;;;;;5088718;28;20151;-43
2021/08/09 07:05:47;;;;;;;5.00;3.03;;;16.40;99.90;;;;;;5092125;28;20024;-43
2021/08/09 07:08:14;;;;;;;5.57;3.28;;;16.50;99.90;;;;;;5091992;28;20035;-40
2021/08/09 07:10:41;;;;;;;6.10;2.72;;;16.50;99.90;;;;;;5091930;28;20136;-40
2021/08/09 07:13:09;;;;;;;6.18;2.95;;;16.60;99.90;;;;;;5092494;28;20024;-44
2021/08/09 07:15:35;;;;;;;5.65;2.65;;;16.60;99.90;;;;;;5092315;28;20016;-42
2021/08/09 07:18:00;;;;;;;5.57;2.85;;;16.70;99.90;;;;;;5092172;28;20031;-42
2021/08/09 07:20:26;;;;;;;4.95;2.75;;;16.80;99.90;;;;;;5091650;28;20115;-38
2021/08/09 07:22:52;;;;;;;8.27;3.20;;;16.90;99.90;;;;;;5092128;28;20032;-38
2021/08/09 07:25:18;;;;;;;5.10;2.40;;;16.90;99.90;;;;;;5092039;28;20475;-40
2021/08/09 07:27:44;;;;;;;6.50;2.80;;;17.00;99.90;;;;;;5090086;28;20040;-42
2021/08/09 07:30:13;;;;;;;5.25;2.20;;;17.00;99.90;;;;;;5092341;28;20059;-41
2021/08/09 07:32:39;;;;;;;3.47;2.05;;;17.10;99.90;;;;;;5091010;28;20023;-40
2021/08/09 07:35:06;;;;;;;5.30;2.63;;;17.20;99.90;;;;;;5092223;28;20051;-42
2021/08/09 07:37:31;;;;;;;5.25;2.17;;;17.20;99.90;;;;;;5091170;28;20027;-41
2021/08/09 07:39:57;;;;;;;4.57;2.45;;;17.30;99.90;;;;;;5091855;28;20512;-43
2021/08/09 07:42:24;;;;;;;6.95;2.40;;;17.30;99.90;;;;;;5091140;28;20064;-40
2021/08/09 07:44:50;;;;;;;5.80;2.30;;;17.40;99.90;;;;;;5091811;28;20073;-42
2021/08/09 07:47:16;;;;;;;5.07;2.38;;;17.40;99.90;;;;;;5091910;28;20070;-37
2021/08/09 07:49:42;;;;;;;6.05;2.20;;;17.50;99.90;;;;;;5091463;28;20157;-37
2021/08/09 07:52:09;;;;;;;4.13;2.13;;;17.50;99.90;;;;;;5092157;28;20031;-41
2021/08/09 07:54:34;;;;;;;4.30;2.20;;;17.60;99.90;;;;;;5090749;28;20023;-39
2021/08/09 07:57:06;;;;;;;10.25;2.92;;;17.60;99.90;;;;;;5091729;28;20019;-40
2021/08/09 07:59:33;;;;;;;6.10;2.72;;;17.70;99.90;;;;;;5090205;28;20052;-40
2021/08/09 08:02:03;;;;;;;6.22;2.40;;;17.70;99.90;;;;;;5091559;28;20027;-42
2021/08/09 08:04:30;;;;;;;5.40;2.25;;;17.80;99.90;;;;;;5091263;28;20384;-46
2021/08/09 08:06:58;;;;;;;6.75;2.58;;;17.80;99.90;;;;;;5091361;28;20024;-40
2021/08/09 08:09:24;;;;;;;5.45;2.40;;;17.90;99.90;;;;;;5090183;28;20140;-44
2021/08/09 08:11:49;;;;;;;5.95;2.50;;;17.90;99.90;;;;;;5091491;28;20078;-41
2021/08/09 08:14:15;;;;;;;3.80;1.85;;;18.00;99.90;;;;;;5090114;28;20071;-40
2021/08/09 08:16:41;;;;;;;4.40;2.20;;;18.00;99.90;;;;;;5090038;28;20014;-42
2021/08/09 08:19:07;;;;;;;5.82;2.30;;;18.00;99.90;;;;;;5091537;28;20093;-40
2021/08/09 08:21:32;;;;;;;3.55;2.20;;;18.10;99.90;;;;;;5090041;28;20047;-40
2021/08/09 08:23:58;;;;;;;5.97;2.25;;;18.20;99.90;;;;;;5090924;28;20039;-39
2021/08/09 08:26:24;;;;;;;4.80;2.42;;;18.20;99.90;;;;;;5090459;28;20475;-40
2021/08/09 08:28:50;;;;;;;5.70;2.60;;;18.30;99.90;;;;;;5091223;28;20031;-38
2021/08/09 08:31:15;;;;;;;5.75;2.15;;;18.40;99.90;;;;;;5090906;28;20476;-39
2021/08/09 08:33:44;;;;;;;7.40;2.70;;;18.60;99.90;;;;;;5090773;28;20365;-42
2021/08/09 08:36:09;;;;;;;6.03;2.40;;;18.70;99.90;;;;;;5090345;28;20423;-41
2021/08/09 08:38:36;;;;;;;5.25;2.45;;;18.80;99.90;;;;;;5090328;28;20103;-38
2021/08/09 08:41:05;;;;;;;10.93;2.83;;;18.90;99.90;;;;;;5090646;28;20501;-43
2021/08/09 08:43:32;;;;;;;3.67;2.28;;;18.90;99.90;;;;;;5089968;28;20475;-40
2021/08/09 08:46:00;;;;;;;2.67;1.88;;;19.00;99.90;;;;;;5090669;28;20046;-42
2021/08/09 08:48:27;;;;;;;5.78;2.03;;;19.00;99.90;;;;;;5089807;28;20028;-41
2021/08/09 08:50:54;;;;;;;4.20;1.67;;;19.00;99.90;;;;;;5090985;28;20018;-41
2021/08/09 08:53:20;;;;;;;4.43;1.70;;;19.10;99.90;;;;;;5090594;28;20472;-42
2021/08/09 08:55:46;;;;;;;2.15;1.40;;;19.10;99.90;;;;;;5089641;28;20089;-40
2021/08/09 08:58:11;;;;;;;5.28;1.77;;;19.20;99.90;;;;;;5090747;28;20459;-41
2021/08/09 09:00:38;;;;;;;3.63;1.70;;;19.30;99.90;;;;;;5089643;28;20111;-39
2021/08/09 09:03:15;;;;;;;4.45;2.00;;;19.40;99.90;;;;;;5090192;28;20032;-39
2021/08/09 09:05:40;;;;;;;3.58;1.77;;;19.50;99.90;;;;;;5090094;28;20020;-38
2021/08/09 09:08:06;;;;;;;2.80;1.40;;;19.60;99.90;;;;;;5089990;28;20035;-40
2021/08/09 09:10:36;;;;;;;3.83;1.63;;;19.70;99.90;;;;;;5088703;28;20054;-40
2021/08/09 09:13:17;;;;;;;4.95;1.67;;;19.90;99.90;;;;;;5091045;28;20022;-41
2021/08/09 09:16:00;;;;;;;5.15;1.40;;;20.00;99.00;;;;;;5090253;28;20024;-40
2021/08/09 09:18:41;;;;;;;2.75;1.77;;;20.20;98.90;;;;;;5084816;28;20070;-38
2021/08/09 09:21:11;;;;;;;4.88;2.20;;;20.30;98.80;;;;;;5086196;28;20479;-41
2021/08/09 09:23:37;;;;;;;4.20;1.60;;;20.40;98.00;;;;;;5088158;28;20036;-39
2021/08/09 09:26:27;;;;;;;4.38;2.17;;;20.60;98.20;;;;;;5087769;28;20376;-42
2021/08/09 09:28:53;;;;;;;2.53;1.58;;;20.50;97.70;;;;;;5079245;28;20016;-39
2021/08/09 09:31:31;;;;;;;3.55;1.33;;;20.60;97.60;;;;;;5089140;28;20081;-39
2021/08/09 09:33:58;;;;;;;2.80;1.58;;;20.70;97.70;;;;;;5089205;28;20471;-40
2021/08/09 09:36:24;;;;;;;5.22;1.75;;;20.80;97.40;;;;;;5089406;28;20035;-42
2021/08/09 09:38:52;;;;;;;4.00;1.65;;;21.00;97.10;;;;;;5089216;28;20012;-38
2021/08/09 09:41:19;;;;;;;5.40;2.10;;;21.10;97.00;;;;;;5089878;28;20020;-40
2021/08/09 09:43:46;;;;;;;4.38;1.52;;;21.20;96.90;;;;;;5088540;28;20077;-39
2021/08/09 09:46:28;;;;;;;2.17;1.42;;;21.30;96.90;;;;;;5089317;28;20395;-39
2021/08/09 09:49:02;;;;;;;5.63;1.73;;;21.40;96.90;;;;;;5090231;28;20020;-43
2021/08/09 09:51:28;;;;;;;4.80;1.38;;;21.50;96.40;;;;;;5089241;28;20089;-41
2021/08/09 09:54:06;;;;;;;2.90;1.40;;;21.60;96.40;;;;;;5089202;28;20024;-40
2021/08/09 09:56:32;;;;;;;3.58;1.77;;;21.60;96.40;;;;;;5089157;28;20051;-42
2021/08/09 09:58:59;;;;;;;5.22;1.40;;;21.60;96.20;;;;;;5088555;28;20028;-39
2021/08/09 10:01:25;;;;;;;3.08;1.33;;;21.60;96.50;;;;;;5089335;28;20024;-41
2021/08/09 10:03:50;;;;;;;2.78;1.48;;;21.60;96.50;;;;;;5090169;28;20028;-37
2021/08/09 10:06:17;;;;;;;4.78;1.92;;;21.70;96.50;;;;;;5088880;28;20370;-36
2021/08/09 10:08:44;;;;;;;2.63;1.30;;;21.80;96.10;;;;;;5088743;28;20047;-42
2021/08/09 10:11:10;;;;;;;5.05;1.48;;;21.90;96.20;;;;;;5089171;28;20093;-41
2021/08/09 10:13:37;;;;;;;5.88;1.55;;;22.00;96.10;;;;;;5088299;28;20060;-37
2021/08/09 10:16:07;;;;;;;6.03;1.40;;;22.00;96.20;;;;;;5089621;28;20051;-36
2021/08/09 10:18:35;;;;;;;1.63;1.30;;;22.00;96.20;;;;;;5088841;28;20095;-39
2021/08/09 10:21:05;;;;;;;3.65;1.42;;;22.10;96.20;;;;;;5088631;28;20020;-38
2021/08/09 10:23:40;;;;;;;5.60;1.30;;;22.10;95.90;;;;;;5088547;28;20032;-41
2021/08/09 10:26:08;;;;;;;3.53;1.25;;;22.20;95.80;;;;;;5089333;28;20027;-36
2021/08/09 10:29:07;;;;;;;2.78;1.27;;;22.20;95.10;;;;;;5087371;28;20063;-42
2021/08/09 10:31:40;;;;;;;4.15;1.50;;;22.30;95.40;;;;;;5044342;28;20870;-40
2021/08/09 10:34:08;;;;;;;4.13;1.52;;;22.30;94.90;;;;;;5088825;28;20016;-44
2021/08/09 10:37:09;;;;;;;3.00;1.50;;;22.30;94.70;;;;;;5088303;28;20085;-43
2021/08/09 10:39:55;;;;;;;3.08;1.30;;;22.20;94.70;;;;;;5087810;28;20026;-39
2021/08/09 10:42:39;;;;;;;2.83;1.40;;;22.20;94.30;;;;;;5088755;28;20511;-44
2021/08/09 10:45:08;;;;;;;1.77;1.02;;;22.20;94.40;;;;;;5089121;28;20128;-43
2021/08/09 10:47:46;;;;;;;2.28;1.17;;;22.20;94.60;;;;;;5088113;28;20020;-36
2021/08/09 10:50:31;;;;;;;4.57;1.40;;;22.30;94.80;;;;;;5088010;28;20036;-40
2021/08/09 10:52:58;;;;;;;2.53;1.27;;;22.40;94.50;;;;;;5088973;28;20475;-40
2021/08/09 10:55:29;;;;;;;2.13;1.25;;;22.40;94.50;;;;;;5087546;28;20016;-39
2021/08/09 10:57:59;;;;;;;3.55;1.30;;;22.50;94.20;;;;;;5088986;28;20419;-41
2021/08/09 11:00:42;;;;;;;3.45;1.38;;;22.50;93.70;;;;;;5087444;28;20032;-43
2021/08/09 11:03:09;;;;;;;2.95;1.17;;;22.50;93.10;;;;;;5088062;28;20433;-37
2021/08/09 11:05:35;;;;;;;2.63;1.10;;;22.50;93.00;;;;;;5088186;28;20016;-42
2021/08/09 11:08:16;;;;;;;2.72;1.08;;;22.50;93.20;;;;;;5088835;28;20463;-41
2021/08/09 11:11:04;;;;;;;3.33;1.40;;;22.50;93.10;;;;;;5087575;28;20080;-43
2021/08/09 11:13:36;;;;;;;3.85;1.63;;;22.60;93.30;;;;;;5087523;28;20035;-39
2021/08/09 11:16:04;;;;;;;3.80;1.42;;;22.50;93.00;;;;;;5088902;28;20043;-44
2021/08/09 11:18:31;;;;;;;2.67;1.08;;;22.40;92.70;;;;;;5087985;28;20024;-43
2021/08/09 11:21:05;;;;;;;2.80;1.10;;;22.30;93.30;;;;;;5088603;28;20031;-40
2021/08/09 11:23:45;;;;;;;1.83;1.00;;;22.10;94.00;;;;;;5087166;28;20100;-40
2021/08/09 11:26:25;;;;;;;3.88;1.20;;;22.00;94.40;;;;;;5088007;28;20496;-39
2021/08/09 11:29:01;;;;;;;3.75;1.52;;;21.80;94.90;;;;;;5088766;28;20475;-41
2021/08/09 11:31:28;;;;;;;1.70;1.13;;;21.80;94.70;;;;;;5087050;28;20543;-37
2021/08/09 11:33:54;;;;;;;3.40;1.25;;;21.60;94.80;;;;;;5088714;28;20020;-36
2021/08/09 11:36:20;;;;;;;2.55;1.02;;;21.50;95.40;;;;;;5087857;28;20517;-39
2021/08/09 11:38:51;;;;;;;3.35;1.60;;;21.40;95.70;;;;;;5088402;28;20024;-42
2021/08/09 11:41:24;;;;;;;3.70;1.23;;;21.20;96.40;;;;;;5088449;28;20067;-43
2021/08/09 11:43:56;;;;;;;3.58;1.27;;;21.00;97.00;;;;;;5088787;28;20043;-39
2021/08/09 11:46:22;;;;;;;4.18;1.30;;;20.80;97.80;;;;;;5086859;28;20370;-39
2021/08/09 11:48:50;;;;;;;4.22;1.35;;;20.80;98.00;;;;;;5087880;28;20475;-41
2021/08/09 11:51:26;;;;;;;3.45;1.23;;;20.90;98.00;;;;;;5091831;28;20031;-40
2021/08/09 11:53:54;;;;;;;2.55;1.50;;;21.10;97.90;;;;;;5093009;28;20056;-42
2021/08/09 11:56:21;;;;;;;2.42;1.25;;;21.20;97.80;;;;;;5091740;28;20016;-38
2021/08/09 11:58:47;;;;;;;3.88;1.63;;;21.40;97.70;;;;;;5091781;28;20032;-43
2021/08/09 12:01:34;;;;;;;3.08;0.95;;;21.70;97.60;;;;;;5091553;28;20464;-43
2021/08/09 12:04:08;;;;;;;2.15;1.27;;;22.10;97.40;;;;;;5092456;28;20455;-43
2021/08/09 12:06:50;;;;;;;2.40;1.27;;;22.20;96.90;;;;;;5091033;28;20024;-41
2021/08/09 12:09:28;;;;;;;2.20;1.33;;;22.20;96.00;;;;;;5081064;28;20050;-41
2021/08/09 12:12:00;;;;;;;2.17;1.30;;;22.10;96.00;;;;;;5092691;28;20024;-40
2021/08/09 12:14:26;;;;;;;1.80;1.13;;;22.00;96.00;;;;;;5080116;28;20024;-40
2021/08/09 12:16:56;;;;;;;4.13;1.30;;;22.10;96.00;;;;;;5091781;28;20012;-40
2021/08/09 12:19:35;;;;;;;2.72;1.05;;;22.20;94.90;;;;;;5091595;28;20031;-40
2021/08/09 12:22:12;;;;;;;2.72;1.05;;;22.30;95.10;;;;;;5090601;28;20028;-38
2021/08/09 12:24:39;;;;;;;2.55;1.10;;;22.40;94.50;;;;;;5090950;28;20794;-40
2021/08/09 12:27:19;;;;;;;3.65;1.50;;;22.40;94.30;;;;;;5090393;28;20016;-39
2021/08/09 12:30:07;;;;;;;4.00;1.40;;;22.50;93.90;;;;;;5091040;28;20054;-41
2021/08/09 12:32:41;;;;;;;2.53;1.45;;;22.60;93.50;;;;;;5090501;28;20472;-43
2021/08/09 12:35:09;;;;;;;3.33;1.10;;;22.60;93.90;;;;;;5080059;28;20068;-40
2021/08/09 12:37:36;;;;;;;2.67;1.40;;;22.60;93.30;;;;;;5090391;28;20024;-41
2021/08/09 12:40:16;;;;;;;1.92;1.00;;;22.50;92.80;;;;;;5090682;28;20560;-43
2021/08/09 12:42:44;;;;;;;1.83;1.00;;;22.50;93.20;;;;;;5089569;28;20036;-42
2021/08/09 12:45:10;;;;;;;1.13;0.80;;;22.40;93.50;;;;;;5091242;28;20020;-40
2021/08/09 12:47:36;;;;;;;3.28;1.20;;;22.40;93.90;;;;;;5090178;28;20040;-37
2021/08/09 12:50:02;;;;;;;2.92;0.98;;;22.50;93.60;;;;;;5090476;28;20387;-40
2021/08/09 12:52:27;;;;;;;3.50;1.33;;;22.60;93.20;;;;;;5090774;28;20502;-40